Lynn, Alabama
Current Conditions -  °F | °C
As of 5:56 PM on Friday 21 Nov 2014 (Local Time) from K1M4 Reporting Station
Clear Clear  
Wind Chill: 51°   Ceiling: Unl
Heat Index: 51°   Visibility: 10mi
Dew Point: 41°   Wind: 0mph
Humidity: 69%   Direction: NA
Pressure: 30.36"   Gusts: NA
Location:  34.05°N, 87.55°W
Report Text: K1M4 212356Z AUTO 00000KT 10SM CLR 11/05 A3036 RMK AO2 51006 T01050050 10166 20094 SLP289
Loading
Personal Weather Stations






























Interactive Weather Map New forecast layout! Learn more

10-Day Weather Forecast

Advertisements
Track Severe Weather on mobile